KFA weather

Kiffa Airport
Kiffa, Assaba Region, Mauritania

Public forecast

Using degrees Celsius for public forecast. Weather courtesy of forecast.io.

METAR (pilot weather report)

Report is more than 6 hours old.

Closest report is Yélimané Airport, 100.0 nm (185.2 km) SSE. Retrieved 2017/03/31 06:00 UTC (2 years ago):

GAYE 310600Z 10016KT 8000 NSC 36/07 Q////

TAF (pilot weather forecast)

Forecast is more than 12 hours old.

Closest forecast is Nouakchott International Airport, 275.6 nm (510.4 km) WNW. Retrieved 2016/06/26 18:52 UTC (3 years ago):

TAF GQNN 261700Z 2618/2800 28010KT 6000 NSC BECMG 2619/2621 BKN008 PROB40 TEMPO 2704/2708 4000 BR BECMG 2709/2711 FEW010